Time;durP1;ratioP1;P1;durP2;ratioP2;P2;SDS_P1;SDS_P2;PMS_P1;PMS_P2;Temp;Humidity;BMP_temperature;BMP_pressure;BME280_temperature;BME280_humidity;BME280_pressure;Samples;Min_cycle;Max_cycle;Signal;HPM_P1;HPM_P2
2022/09/09 00:00:17;;;;;;;1.15;0.40;;;15.80;99.90;;;;;;20992788;28;20032;-82
2022/09/09 00:10:20;;;;;;;0.57;0.10;;;15.90;99.90;;;;;;21001074;28;20028;-82
2022/09/09 00:20:57;;;;;;;0.50;0.10;;;15.70;99.90;;;;;;20981126;28;20098;-83
2022/09/09 00:31:18;;;;;;;0.90;0.40;;;15.60;99.90;;;;;;20972625;28;20078;-83
2022/09/09 00:41:35;;;;;;;4.10;0.40;;;15.60;99.90;;;;;;20960914;28;20451;-83
2022/09/09 00:51:42;;;;;;;0.70;0.43;;;15.50;99.90;;;;;;20966872;28;20032;-83
2022/09/09 01:01:44;;;;;;;1.40;0.70;;;15.40;99.90;;;;;;20993977;28;20372;-82
2022/09/09 01:12:16;;;;;;;1.17;0.40;;;15.30;99.90;;;;;;20968597;28;20024;-82
2022/09/09 01:22:34;;;;;;;2.28;0.63;;;15.10;99.90;;;;;;20981837;28;20898;-81
2022/09/09 01:32:46;;;;;;;1.23;0.77;;;15.10;99.90;;;;;;20983683;28;21216;-81
2022/09/09 01:42:47;;;;;;;1.40;0.60;;;15.10;99.90;;;;;;20987493;28;20044;-81
2022/09/09 01:52:55;;;;;;;7.15;1.92;;;15.00;99.90;;;;;;20985488;28;20029;-81
2022/09/09 02:03:08;;;;;;;3.42;0.80;;;14.90;99.90;;;;;;20974214;28;20140;-82
2022/09/09 02:13:15;;;;;;;2.03;0.60;;;14.80;99.90;;;;;;20984969;28;20655;-80
2022/09/09 02:23:17;;;;;;;1.63;0.63;;;14.70;99.90;;;;;;20955415;28;20090;-82
2022/09/09 02:33:19;;;;;;;1.67;0.90;;;14.80;99.90;;;;;;20975909;28;20082;-81
2022/09/09 02:43:20;;;;;;;1.58;0.70;;;14.70;99.90;;;;;;21006265;28;20125;-82
2022/09/09 02:53:31;;;;;;;2.70;1.13;;;14.80;99.90;;;;;;20987984;28;20431;-82
2022/09/09 03:03:33;;;;;;;2.35;1.45;;;14.70;99.90;;;;;;20978167;28;20099;-82
2022/09/09 03:13:33;;;;;;;1.80;0.77;;;14.80;99.90;;;;;;20967026;28;20032;-80
2022/09/09 03:23:35;;;;;;;3.05;1.15;;;14.80;99.90;;;;;;20986771;28;20044;-81
2022/09/09 03:33:40;;;;;;;3.78;1.38;;;14.70;99.90;;;;;;20985102;28;20037;-82
2022/09/09 03:43:41;;;;;;;3.10;1.85;;;14.70;99.90;;;;;;20990642;28;20036;-82
2022/09/09 03:53:43;;;;;;;2.28;0.70;;;14.60;99.90;;;;;;20977207;28;20042;-81
2022/09/09 04:03:44;;;;;;;3.60;1.52;;;14.70;99.90;;;;;;21018494;28;20040;-84
2022/09/09 04:13:45;;;;;;;3.30;1.10;;;14.50;99.90;;;;;;20987711;28;20077;-82
2022/09/09 04:23:46;;;;;;;5.20;2.10;;;14.60;99.90;;;;;;20979024;28;20177;-82
2022/09/09 04:33:48;;;;;;;1.33;0.50;;;14.60;99.90;;;;;;20970918;28;20095;-81
2022/09/09 04:43:49;;;;;;;2.05;0.80;;;14.70;99.90;;;;;;21002221;28;20040;-81
2022/09/09 04:53:51;;;;;;;1.88;0.80;;;14.70;99.90;;;;;;20973067;28;20101;-80
2022/09/09 05:03:53;;;;;;;0.95;0.60;;;14.60;99.90;;;;;;20968669;28;20032;-81
2022/09/09 05:13:54;;;;;;;1.73;0.73;;;14.60;99.90;;;;;;20983750;28;20036;-81
2022/09/09 05:23:55;;;;;;;1.77;0.70;;;14.60;99.90;;;;;;20967450;28;20198;-82
2022/09/09 05:33:56;;;;;;;1.88;0.80;;;14.60;99.90;;;;;;20984027;28;20024;-82
2022/09/09 05:43:58;;;;;;;5.45;1.13;;;14.60;99.90;;;;;;20977070;28;20024;-81
2022/09/09 05:53:59;;;;;;;2.60;1.30;;;14.60;99.90;;;;;;20978760;28;20044;-81
2022/09/09 06:04:01;;;;;;;2.85;1.38;;;14.80;99.90;;;;;;20984623;28;20039;-81
2022/09/09 06:14:02;;;;;;;2.90;0.90;;;14.90;99.90;;;;;;20963231;28;20499;-82
2022/09/09 06:24:04;;;;;;;5.68;1.30;;;15.00;99.90;;;;;;20981799;28;20732;-83
2022/09/09 06:34:07;;;;;;;2.63;0.88;;;15.30;99.90;;;;;;20975033;28;20761;-81
2022/09/09 06:44:11;;;;;;;3.28;0.90;;;15.40;99.90;;;;;;20971902;28;20078;-81
2022/09/09 06:54:13;;;;;;;2.03;0.68;;;15.50;99.90;;;;;;20970692;28;20028;-81
2022/09/09 07:04:14;;;;;;;1.92;1.05;;;15.80;99.90;;;;;;20976849;28;20122;-81
2022/09/09 07:14:15;;;;;;;2.28;0.93;;;16.10;99.90;;;;;;21005279;28;20300;-80
2022/09/09 07:24:16;;;;;;;3.95;1.30;;;16.20;99.90;;;;;;20971606;28;20547;-81
2022/09/09 07:34:18;;;;;;;5.00;0.88;;;16.30;99.90;;;;;;20979759;28;20414;-82
2022/09/09 07:44:22;;;;;;;4.55;1.20;;;16.40;99.90;;;;;;20981280;28;20067;-81
2022/09/09 07:54:23;;;;;;;1.58;0.75;;;16.50;99.90;;;;;;20988351;28;20694;-81
2022/09/09 08:04:25;;;;;;;1.63;0.75;;;16.50;99.90;;;;;;21023409;28;20044;-82
2022/09/09 08:14:27;;;;;;;2.63;1.38;;;16.60;99.90;;;;;;20968456;28;20467;-82
2022/09/09 08:24:28;;;;;;;1.90;0.85;;;16.80;99.90;;;;;;20987427;28;20147;-82
2022/09/09 08:34:30;;;;;;;3.70;0.70;;;17.00;99.90;;;;;;20985300;28;20097;-82
2022/09/09 08:44:35;;;;;;;3.00;1.10;;;17.00;99.90;;;;;;20990658;28;20032;-83
2022/09/09 08:54:36;;;;;;;2.00;0.68;;;17.00;99.90;;;;;;20953552;28;20048;-82
2022/09/09 09:04:48;;;;;;;3.42;1.33;;;16.90;99.90;;;;;;20977346;28;20078;-82
2022/09/09 09:14:49;;;;;;;2.40;0.95;;;17.00;99.90;;;;;;20980362;28;20089;-83
2022/09/09 09:25:06;;;;;;;2.83;0.85;;;17.10;99.90;;;;;;20983208;28;20551;-82
2022/09/09 09:35:12;;;;;;;2.00;0.70;;;17.00;99.90;;;;;;20976698;28;20518;-82
2022/09/09 09:45:25;;;;;;;2.40;1.33;;;16.90;99.90;;;;;;20968795;28;20378;-83
2022/09/09 09:55:31;;;;;;;1.80;1.02;;;16.90;99.90;;;;;;20990094;28;21654;-82
2022/09/09 10:05:36;;;;;;;3.40;0.95;;;17.10;99.90;;;;;;20986257;28;20091;-82
2022/09/09 10:15:58;;;;;;;1.55;0.63;;;17.30;99.90;;;;;;20970777;28;20093;-82
2022/09/09 10:26:33;;;;;;;4.03;0.88;;;17.30;99.90;;;;;;20964222;28;20679;-82
2022/09/09 10:36:35;;;;;;;4.82;1.55;;;16.80;99.90;;;;;;20965931;28;20690;-81
2022/09/09 10:47:07;;;;;;;3.00;0.70;;;17.00;99.90;;;;;;20988381;28;20572;-81
2022/09/09 10:57:20;;;;;;;1.27;0.57;;;17.30;99.90;;;;;;20972235;28;20549;-81
2022/09/09 11:07:40;;;;;;;1.98;0.68;;;17.30;99.90;;;;;;20981005;28;20028;-82
2022/09/09 11:17:49;;;;;;;1.88;0.85;;;17.30;99.90;;;;;;20987898;28;20771;-81
2022/09/09 11:28:15;;;;;;;2.13;0.60;;;17.40;99.90;;;;;;20993550;28;20036;-81
2022/09/09 11:38:18;;;;;;;2.20;0.70;;;17.30;99.90;;;;;;20993666;28;20718;-81
2022/09/09 11:48:45;;;;;;;3.03;1.67;;;17.30;99.90;;;;;;20974721;28;20033;-82
2022/09/09 11:59:20;;;;;;;2.10;0.57;;;16.90;99.90;;;;;;20998277;28;20694;-82
2022/09/09 12:09:33;;;;;;;2.28;0.75;;;16.90;99.90;;;;;;20969406;28;20334;-80
2022/09/09 12:19:34;;;;;;;3.15;0.90;;;17.00;99.90;;;;;;20999170;28;20044;-80
2022/09/09 12:30:26;;;;;;;2.10;0.80;;;17.50;99.90;;;;;;20976278;28;20043;-81
2022/09/09 12:40:35;;;;;;;2.92;1.17;;;17.40;99.90;;;;;;20964108;28;20304;-82
2022/09/09 12:50:39;;;;;;;2.72;0.75;;;18.10;99.90;;;;;;20975583;28;20109;-81
2022/09/09 13:00:50;;;;;;;1.70;0.70;;;17.80;99.90;;;;;;20985189;28;20029;-81
2022/09/09 13:11:02;;;;;;;1.55;0.57;;;17.60;99.90;;;;;;20979517;28;20032;-82
2022/09/09 13:21:04;;;;;;;1.50;0.60;;;17.70;99.90;;;;;;20968566;28;20038;-81
2022/09/09 13:31:20;;;;;;;3.10;0.60;;;17.60;99.90;;;;;;20967666;28;20052;-81
2022/09/09 13:41:30;;;;;;;13.68;0.80;;;17.90;99.90;;;;;;20972626;28;20866;-81
2022/09/09 13:51:37;;;;;;;2.40;1.17;;;17.80;99.90;;;;;;20990631;28;20681;-81
2022/09/09 14:01:38;;;;;;;1.80;0.67;;;17.80;99.90;;;;;;20962415;28;20174;-82
2022/09/09 14:11:40;;;;;;;2.30;0.93;;;17.70;99.90;;;;;;20971971;28;20036;-81
2022/09/09 14:21:41;;;;;;;1.70;0.60;;;17.50;99.90;;;;;;21006657;28;20036;-81
2022/09/09 14:31:42;;;;;;;2.33;0.60;;;17.30;99.90;;;;;;21002532;28;20039;-81
2022/09/09 14:41:43;;;;;;;1.85;0.50;;;17.70;99.90;;;;;;20984518;28;20048;-81
2022/09/09 14:51:44;;;;;;;1.27;0.40;;;18.20;99.90;;;;;;20996055;28;20043;-81
2022/09/09 15:01:45;;;;;;;3.72;1.23;;;18.20;99.90;;;;;;20993500;28;20040;-82
2022/09/09 15:11:46;;;;;;;1.23;0.30;;;17.50;99.90;;;;;;21001771;28;20031;-81
2022/09/09 15:21:47;;;;;;;1.48;0.43;;;17.20;99.90;;;;;;21010825;28;20450;-81
2022/09/09 15:31:48;;;;;;;1.48;0.55;;;17.20;99.90;;;;;;21003261;28;20044;-81
2022/09/09 15:41:49;;;;;;;1.15;0.40;;;17.40;99.90;;;;;;20976665;28;20053;-81
2022/09/09 15:51:57;;;;;;;1.00;0.40;;;17.70;99.90;;;;;;20984173;28;20049;-81
2022/09/09 16:01:59;;;;;;;0.85;0.30;;;17.80;99.90;;;;;;20980960;28;20032;-81
2022/09/09 16:12:06;;;;;;;0.60;0.32;;;17.80;99.90;;;;;;20992386;28;20476;-81
2022/09/09 16:22:07;;;;;;;7.85;1.10;;;17.80;99.90;;;;;;20983471;28;20052;-81
2022/09/09 16:32:08;;;;;;;4.30;0.82;;;17.60;99.90;;;;;;20962605;28;20094;-81
2022/09/09 16:42:10;;;;;;;1.35;0.30;;;17.50;99.90;;;;;;20971847;28;20047;-81
2022/09/09 16:52:11;;;;;;;2.00;1.00;;;17.40;99.90;;;;;;20986929;28;20365;-81
2022/09/09 17:02:12;;;;;;;2.65;0.55;;;17.50;99.90;;;;;;20976162;28;20036;-81
2022/09/09 17:12:13;;;;;;;2.65;1.75;;;17.50;99.90;;;;;;20969859;28;20947;-81
2022/09/09 17:22:15;;;;;;;2.95;1.70;;;17.50;99.90;;;;;;20972539;28;20551;-81
2022/09/09 17:32:16;;;;;;;4.50;1.73;;;17.20;99.90;;;;;;20984946;28;20430;-80
2022/09/09 17:42:18;;;;;;;2.42;1.00;;;17.00;99.90;;;;;;20988007;28;20123;-81
2022/09/09 17:52:19;;;;;;;7.85;2.03;;;16.70;99.90;;;;;;20969686;28;20032;-80
2022/09/09 18:02:20;;;;;;;3.35;1.90;;;16.60;99.90;;;;;;20976884;28;20044;-81
2022/09/09 18:12:20;;;;;;;4.10;1.30;;;16.60;99.90;;;;;;20982613;28;20033;-80
2022/09/09 18:22:22;;;;;;;5.38;0.95;;;16.50;99.90;;;;;;20967972;28;20067;-81
2022/09/09 18:32:23;;;;;;;2.05;1.13;;;16.50;99.90;;;;;;20964721;28;20035;-81
2022/09/09 18:42:25;;;;;;;1.70;0.80;;;16.50;99.90;;;;;;20969688;28;20044;-80
2022/09/09 18:52:26;;;;;;;2.10;0.90;;;16.40;99.90;;;;;;20980668;28;20067;-80
2022/09/09 19:02:27;;;;;;;2.33;1.00;;;16.30;99.90;;;;;;20975156;28;20102;-81
2022/09/09 19:12:29;;;;;;;1.85;0.95;;;16.20;99.90;;;;;;20995449;28;20028;-81
2022/09/09 19:22:30;;;;;;;1.73;0.60;;;16.10;99.90;;;;;;20989572;28;20040;-80
2022/09/09 19:32:31;;;;;;;2.83;1.20;;;16.10;99.90;;;;;;20999018;28;20032;-80
2022/09/09 19:42:32;;;;;;;3.90;1.92;;;16.10;99.90;;;;;;20968820;28;20608;-80
2022/09/09 19:52:33;;;;;;;2.20;1.30;;;16.00;99.90;;;;;;20998558;28;20055;-80
2022/09/09 20:02:34;;;;;;;4.55;1.10;;;16.00;99.90;;;;;;20981182;28;20591;-81
2022/09/09 20:12:35;;;;;;;1.90;1.08;;;16.00;99.90;;;;;;21004308;28;20479;-80
2022/09/09 20:22:36;;;;;;;2.80;1.10;;;16.00;99.90;;;;;;20978449;28;20040;-81
2022/09/09 20:32:37;;;;;;;3.03;1.45;;;16.00;99.90;;;;;;20954848;28;20039;-81
2022/09/09 20:42:38;;;;;;;2.42;0.80;;;16.00;99.90;;;;;;20991048;28;20054;-81
2022/09/09 20:52:39;;;;;;;2.03;1.00;;;15.90;99.90;;;;;;20996295;28;20031;-81
2022/09/09 21:02:40;;;;;;;3.30;1.17;;;16.00;99.90;;;;;;20968385;28;20512;-80
2022/09/09 21:12:41;;;;;;;1.88;0.80;;;15.90;99.90;;;;;;20998709;28;20032;-80
2022/09/09 21:22:43;;;;;;;3.83;1.30;;;15.80;99.90;;;;;;20978666;28;20442;-81
2022/09/09 21:32:44;;;;;;;2.85;1.33;;;15.80;99.90;;;;;;20959487;28;20037;-80
2022/09/09 21:42:46;;;;;;;2.75;1.17;;;15.80;99.90;;;;;;20811520;28;20376;-80
2022/09/09 21:52:47;;;;;;;2.80;1.50;;;15.70;99.90;;;;;;20835622;28;20041;-81
2022/09/09 22:02:48;;;;;;;3.88;2.20;;;15.70;99.90;;;;;;20820835;28;20041;-81
2022/09/09 22:12:49;;;;;;;6.22;2.15;;;15.70;99.90;;;;;;20812997;28;20047;-81
2022/09/09 22:22:50;;;;;;;4.15;2.08;;;15.70;99.90;;;;;;20828415;28;20034;-81
2022/09/09 22:32:51;;;;;;;5.50;2.47;;;15.80;99.90;;;;;;20820680;28;20040;-81
2022/09/09 22:42:52;;;;;;;4.57;2.30;;;15.80;99.90;;;;;;20860992;28;20194;-81
2022/09/09 22:52:53;;;;;;;6.55;3.70;;;15.80;99.90;;;;;;20858269;28;20098;-80
2022/09/09 23:02:55;;;;;;;5.72;2.72;;;15.80;99.90;;;;;;20827703;28;20261;-81
2022/09/09 23:12:57;;;;;;;6.95;3.53;;;15.80;99.90;;;;;;20833201;28;20029;-80
2022/09/09 23:22:59;;;;;;;7.88;3.38;;;15.80;99.90;;;;;;20853717;28;20087;-81
2022/09/09 23:33:00;;;;;;;5.22;3.30;;;15.80;99.90;;;;;;20835061;28;20096;-80
2022/09/09 23:43:02;;;;;;;6.85;3.13;;;15.70;99.90;;;;;;20976483;28;20119;-80
2022/09/09 23:53:03;;;;;;;7.68;3.63;;;15.70;99.90;;;;;;20997863;28;20159;-81
